sensor_id;sensor_type;location;lat;lon;timestamp;pressure;altitude;pressure_sealevel;temperature;humidity
47753;BME280;2038;51.728;6.674;2023-04-22T00:02:13;100225.97;;;10.13;100.00
47753;BME280;2038;51.728;6.674;2023-04-22T00:04:42;100217.56;;;10.14;100.00
47753;BME280;2038;51.728;6.674;2023-04-22T00:07:11;100211.22;;;10.08;100.00
47753;BME280;2038;51.728;6.674;2023-04-22T00:09:38;100211.41;;;10.11;100.00
47753;BME280;2038;51.728;6.674;2023-04-22T00:12:05;100201.84;;;10.07;100.00
47753;BME280;2038;51.728;6.674;2023-04-22T00:14:31;100204.50;;;9.95;100.00
47753;BME280;2038;51.728;6.674;2023-04-22T00:16:57;100201.34;;;9.84;100.00
47753;BME280;2038;51.728;6.674;2023-04-22T00:19:23;100204.50;;;9.95;100.00
47753;BME280;2038;51.728;6.674;2023-04-22T00:21:50;100210.22;;;9.91;100.00
47753;BME280;2038;51.728;6.674;2023-04-22T00:24:16;100204.22;;;9.76;100.00
47753;BME280;2038;51.728;6.674;2023-04-22T00:26:42;100202.72;;;9.65;100.00
47753;BME280;2038;51.728;6.674;2023-04-22T00:29:09;100207.78;;;9.50;100.00
47753;BME280;2038;51.728;6.674;2023-04-22T00:31:35;100209.59;;;9.53;100.00
47753;BME280;2038;51.728;6.674;2023-04-22T00:34:01;100198.50;;;9.37;100.00
47753;BME280;2038;51.728;6.674;2023-04-22T00:36:27;100197.44;;;9.34;100.00
47753;BME280;2038;51.728;6.674;2023-04-22T00:38:53;100197.63;;;9.37;100.00
47753;BME280;2038;51.728;6.674;2023-04-22T00:41:20;100190.97;;;9.39;100.00
47753;BME280;2038;51.728;6.674;2023-04-22T00:43:47;100191.75;;;9.38;100.00
47753;BME280;2038;51.728;6.674;2023-04-22T00:46:15;100186.69;;;9.38;100.00
47753;BME280;2038;51.728;6.674;2023-04-22T00:48:41;100184.91;;;9.37;100.00
47753;BME280;2038;51.728;6.674;2023-04-22T00:51:08;100173.44;;;9.44;100.00
47753;BME280;2038;51.728;6.674;2023-04-22T00:53:34;100184.94;;;9.52;100.00
47753;BME280;2038;51.728;6.674;2023-04-22T00:56:00;100185.22;;;9.56;100.00
47753;BME280;2038;51.728;6.674;2023-04-22T00:58:28;100173.78;;;9.63;100.00
47753;BME280;2038;51.728;6.674;2023-04-22T01:00:55;100168.31;;;9.57;100.00
47753;BME280;2038;51.728;6.674;2023-04-22T01:03:23;100166.75;;;9.59;100.00
47753;BME280;2038;51.728;6.674;2023-04-22T01:05:53;100171.84;;;9.59;100.00
47753;BME280;2038;51.728;6.674;2023-04-22T01:08:19;100173.22;;;9.54;100.00
47753;BME280;2038;51.728;6.674;2023-04-22T01:10:46;100166.47;;;9.54;100.00
47753;BME280;2038;51.728;6.674;2023-04-22T01:13:12;100176.13;;;9.60;100.00
47753;BME280;2038;51.728;6.674;2023-04-22T01:15:38;100170.50;;;9.51;100.00
47753;BME280;2038;51.728;6.674;2023-04-22T01:18:04;100166.88;;;9.47;100.00
47753;BME280;2038;51.728;6.674;2023-04-22T01:20:30;100160.13;;;9.48;100.00
47753;BME280;2038;51.728;6.674;2023-04-22T01:22:58;100163.47;;;9.47;100.00
47753;BME280;2038;51.728;6.674;2023-04-22T01:25:30;100161.94;;;9.78;100.00
47753;BME280;2038;51.728;6.674;2023-04-22T01:27:57;100161.41;;;9.83;100.00
47753;BME280;2038;51.728;6.674;2023-04-22T01:30:27;100165.91;;;9.87;100.00
47753;BME280;2038;51.728;6.674;2023-04-22T01:32:56;100163.44;;;9.89;100.00
47753;BME280;2038;51.728;6.674;2023-04-22T01:35:28;100165.72;;;9.84;100.00
47753;BME280;2038;51.728;6.674;2023-04-22T01:38:10;100164.66;;;9.81;100.00
47753;BME280;2038;51.728;6.674;2023-04-22T01:40:38;100166.94;;;9.91;100.00
47753;BME280;2038;51.728;6.674;2023-04-22T01:43:06;100167.31;;;9.82;100.00
47753;BME280;2038;51.728;6.674;2023-04-22T01:45:33;100159.84;;;9.85;100.00
47753;BME280;2038;51.728;6.674;2023-04-22T01:47:59;100165.63;;;9.83;100.00
47753;BME280;2038;51.728;6.674;2023-04-22T01:50:25;100169.16;;;9.85;100.00
47753;BME280;2038;51.728;6.674;2023-04-22T01:52:52;100167.56;;;9.87;100.00
47753;BME280;2038;51.728;6.674;2023-04-22T01:55:18;100169.59;;;9.93;100.00
47753;BME280;2038;51.728;6.674;2023-04-22T01:57:44;100169.75;;;9.96;100.00
47753;BME280;2038;51.728;6.674;2023-04-22T02:00:11;100170.97;;;9.87;100.00
47753;BME280;2038;51.728;6.674;2023-04-22T02:02:37;100167.75;;;9.90;100.00
47753;BME280;2038;51.728;6.674;2023-04-22T02:05:05;100165.22;;;9.90;100.00
47753;BME280;2038;51.728;6.674;2023-04-22T02:07:32;100166.34;;;9.95;100.00
47753;BME280;2038;51.728;6.674;2023-04-22T02:09:59;100168.19;;;9.98;100.00
47753;BME280;2038;51.728;6.674;2023-04-22T02:12:26;100169.25;;;10.01;100.00
47753;BME280;2038;51.728;6.674;2023-04-22T02:14:52;100168.66;;;10.05;100.00
47753;BME280;2038;51.728;6.674;2023-04-22T02:17:18;100170.91;;;10.01;100.00
47753;BME280;2038;51.728;6.674;2023-04-22T02:19:44;100157.31;;;10.00;100.00
47753;BME280;2038;51.728;6.674;2023-04-22T02:22:11;100167.31;;;9.97;100.00
47753;BME280;2038;51.728;6.674;2023-04-22T02:24:37;100167.31;;;10.12;100.00
47753;BME280;2038;51.728;6.674;2023-04-22T02:27:03;100162.16;;;10.10;100.00
47753;BME280;2038;51.728;6.674;2023-04-22T02:29:30;100159.63;;;10.25;100.00
47753;BME280;2038;51.728;6.674;2023-04-22T02:31:58;100166.06;;;10.18;100.00
47753;BME280;2038;51.728;6.674;2023-04-22T02:34:24;100164.19;;;10.16;100.00
47753;BME280;2038;51.728;6.674;2023-04-22T02:36:51;100167.56;;;10.15;100.00
47753;BME280;2038;51.728;6.674;2023-04-22T02:39:17;100167.72;;;10.18;100.00
47753;BME280;2038;51.728;6.674;2023-04-22T02:41:43;100164.00;;;10.27;100.00
47753;BME280;2038;51.728;6.674;2023-04-22T02:44:09;100155.75;;;10.31;100.00
47753;BME280;2038;51.728;6.674;2023-04-22T02:46:36;100163.22;;;10.28;100.00
47753;BME280;2038;51.728;6.674;2023-04-22T02:49:02;100162.53;;;10.16;100.00
47753;BME280;2038;51.728;6.674;2023-04-22T02:51:28;100157.22;;;10.13;100.00
47753;BME280;2038;51.728;6.674;2023-04-22T02:53:54;100155.88;;;10.18;100.00
47753;BME280;2038;51.728;6.674;2023-04-22T02:56:20;100149.72;;;10.15;100.00
47753;BME280;2038;51.728;6.674;2023-04-22T02:58:47;100148.28;;;10.20;100.00
47753;BME280;2038;51.728;6.674;2023-04-22T03:01:13;100143.19;;;10.20;100.00
47753;BME280;2038;51.728;6.674;2023-04-22T03:03:39;100137.94;;;10.17;100.00
47753;BME280;2038;51.728;6.674;2023-04-22T03:06:05;100132.25;;;10.21;100.00
47753;BME280;2038;51.728;6.674;2023-04-22T03:08:32;100132.34;;;10.22;100.00
47753;BME280;2038;51.728;6.674;2023-04-22T03:10:58;100132.59;;;10.27;100.00
47753;BME280;2038;51.728;6.674;2023-04-22T03:13:24;100136.00;;;10.27;100.00
47753;BME280;2038;51.728;6.674;2023-04-22T03:15:50;100128.44;;;10.29;100.00
47753;BME280;2038;51.728;6.674;2023-04-22T03:18:16;100131.78;;;10.28;100.00
47753;BME280;2038;51.728;6.674;2023-04-22T03:20:43;100127.41;;;10.25;100.00
47753;BME280;2038;51.728;6.674;2023-04-22T03:23:09;100129.06;;;10.25;100.00
47753;BME280;2038;51.728;6.674;2023-04-22T03:25:35;100133.28;;;10.24;100.00
47753;BME280;2038;51.728;6.674;2023-04-22T03:28:02;100123.34;;;10.29;100.00
47753;BME280;2038;51.728;6.674;2023-04-22T03:30:29;100123.53;;;10.32;100.00
47753;BME280;2038;51.728;6.674;2023-04-22T03:32:56;100117.75;;;10.35;100.00
47753;BME280;2038;51.728;6.674;2023-04-22T03:35:23;100120.03;;;10.30;100.00
47753;BME280;2038;51.728;6.674;2023-04-22T03:37:49;100109.75;;;10.28;100.00
47753;BME280;2038;51.728;6.674;2023-04-22T03:40:15;100115.09;;;10.33;100.00
47753;BME280;2038;51.728;6.674;2023-04-22T03:42:41;100107.34;;;10.31;100.00
47753;BME280;2038;51.728;6.674;2023-04-22T03:45:08;100108.97;;;10.29;100.00
47753;BME280;2038;51.728;6.674;2023-04-22T03:47:34;100104.66;;;10.28;100.00
47753;BME280;2038;51.728;6.674;2023-04-22T03:50:00;100108.88;;;10.28;100.00
47753;BME280;2038;51.728;6.674;2023-04-22T03:52:26;100097.09;;;10.30;100.00
47753;BME280;2038;51.728;6.674;2023-04-22T03:54:52;100099.03;;;10.34;100.00
47753;BME280;2038;51.728;6.674;2023-04-22T03:57:18;100102.25;;;10.31;100.00
47753;BME280;2038;51.728;6.674;2023-04-22T03:59:44;100103.97;;;10.31;100.00
47753;BME280;2038;51.728;6.674;2023-04-22T04:02:10;100101.41;;;10.31;100.00
47753;BME280;2038;51.728;6.674;2023-04-22T04:04:36;100094.81;;;10.35;100.00
47753;BME280;2038;51.728;6.674;2023-04-22T04:07:02;100096.38;;;10.32;100.00
47753;BME280;2038;51.728;6.674;2023-04-22T04:09:28;100088.84;;;10.34;100.00
47753;BME280;2038;51.728;6.674;2023-04-22T04:11:53;100085.31;;;10.32;100.00
47753;BME280;2038;51.728;6.674;2023-04-22T04:14:20;100086.97;;;10.31;100.00
47753;BME280;2038;51.728;6.674;2023-04-22T04:16:46;100084.28;;;10.28;100.00
47753;BME280;2038;51.728;6.674;2023-04-22T04:19:12;100085.06;;;10.27;100.00
47753;BME280;2038;51.728;6.674;2023-04-22T04:21:37;100091.34;;;10.18;100.00
47753;BME280;2038;51.728;6.674;2023-04-22T04:24:05;100085.84;;;10.12;100.00
47753;BME280;2038;51.728;6.674;2023-04-22T04:26:31;100090.94;;;10.12;100.00
47753;BME280;2038;51.728;6.674;2023-04-22T04:28:59;100085.94;;;10.13;100.00
47753;BME280;2038;51.728;6.674;2023-04-22T04:31:28;100086.25;;;10.18;100.00
47753;BME280;2038;51.728;6.674;2023-04-22T04:33:54;100085.47;;;10.19;100.00
47753;BME280;2038;51.728;6.674;2023-04-22T04:36:22;100076.38;;;10.24;100.00
47753;BME280;2038;51.728;6.674;2023-04-22T04:38:54;100081.03;;;10.16;100.00
47753;BME280;2038;51.728;6.674;2023-04-22T04:41:22;100082.97;;;10.20;100.00
47753;BME280;2038;51.728;6.674;2023-04-22T04:43:51;100085.69;;;10.23;100.00
47753;BME280;2038;51.728;6.674;2023-04-22T04:46:17;100076.63;;;10.28;100.00
47753;BME280;2038;51.728;6.674;2023-04-22T04:48:45;100077.63;;;10.30;100.00
47753;BME280;2038;51.728;6.674;2023-04-22T04:51:13;100079.38;;;10.17;100.00
47753;BME280;2038;51.728;6.674;2023-04-22T04:53:40;100074.72;;;10.24;100.00
47753;BME280;2038;51.728;6.674;2023-04-22T04:56:06;100070.34;;;10.22;100.00
47753;BME280;2038;51.728;6.674;2023-04-22T04:58:33;100071.38;;;10.25;100.00
47753;BME280;2038;51.728;6.674;2023-04-22T05:00:59;100067.06;;;10.24;100.00
47753;BME280;2038;51.728;6.674;2023-04-22T05:03:26;100066.28;;;10.25;100.00
47753;BME280;2038;51.728;6.674;2023-04-22T05:05:52;100065.66;;;10.29;100.00
47753;BME280;2038;51.728;6.674;2023-04-22T05:08:18;100060.41;;;10.26;100.00
47753;BME280;2038;51.728;6.674;2023-04-22T05:10:44;100062.25;;;10.29;100.00
47753;BME280;2038;51.728;6.674;2023-04-22T05:13:11;100058.34;;;10.36;100.00
47753;BME280;2038;51.728;6.674;2023-04-22T05:15:37;100060.22;;;10.38;100.00
47753;BME280;2038;51.728;6.674;2023-04-22T05:18:03;100061.94;;;10.39;100.00
47753;BME280;2038;51.728;6.674;2023-04-22T05:20:30;100064.56;;;10.41;100.00
47753;BME280;2038;51.728;6.674;2023-04-22T05:22:56;100065.63;;;10.44;100.00
47753;BME280;2038;51.728;6.674;2023-04-22T05:25:23;100068.41;;;10.49;100.00
47753;BME280;2038;51.728;6.674;2023-04-22T05:27:49;100059.47;;;10.41;100.00
47753;BME280;2038;51.728;6.674;2023-04-22T05:30:15;100070.03;;;10.47;100.00
47753;BME280;2038;51.728;6.674;2023-04-22T05:32:41;100069.03;;;10.45;100.00
47753;BME280;2038;51.728;6.674;2023-04-22T05:35:09;100077.50;;;10.60;100.00
47753;BME280;2038;51.728;6.674;2023-04-22T05:37:36;100071.78;;;10.64;100.00
47753;BME280;2038;51.728;6.674;2023-04-22T05:40:02;100077.88;;;10.66;100.00
47753;BME280;2038;51.728;6.674;2023-04-22T05:42:28;100072.13;;;10.70;100.00
47753;BME280;2038;51.728;6.674;2023-04-22T05:44:54;100072.38;;;10.74;100.00
47753;BME280;2038;51.728;6.674;2023-04-22T05:47:21;100070.88;;;10.78;100.00
47753;BME280;2038;51.728;6.674;2023-04-22T05:49:50;100070.09;;;10.79;100.00
47753;BME280;2038;51.728;6.674;2023-04-22T05:52:16;100074.38;;;10.80;100.00
47753;BME280;2038;51.728;6.674;2023-04-22T05:54:43;100061.34;;;10.90;100.00
47753;BME280;2038;51.728;6.674;2023-04-22T05:57:09;100065.94;;;10.97;100.00
47753;BME280;2038;51.728;6.674;2023-04-22T05:59:36;100061.00;;;11.00;100.00
47753;BME280;2038;51.728;6.674;2023-04-22T06:02:02;100068.25;;;11.09;100.00
47753;BME280;2038;51.728;6.674;2023-04-22T06:04:28;100072.81;;;11.14;100.00
47753;BME280;2038;51.728;6.674;2023-04-22T06:06:55;100075.59;;;11.19;100.00
47753;BME280;2038;51.728;6.674;2023-04-22T06:09:22;100070.81;;;11.25;100.00
47753;BME280;2038;51.728;6.674;2023-04-22T06:11:48;100071.19;;;11.33;100.00
47753;BME280;2038;51.728;6.674;2023-04-22T06:14:14;100063.88;;;11.39;100.00
47753;BME280;2038;51.728;6.674;2023-04-22T06:16:41;100066.66;;;11.43;100.00
47753;BME280;2038;51.728;6.674;2023-04-22T06:19:07;100059.31;;;11.49;100.00
47753;BME280;2038;51.728;6.674;2023-04-22T06:21:33;100067.34;;;11.57;100.00
47753;BME280;2038;51.728;6.674;2023-04-22T06:24:02;100063.59;;;11.66;100.00
47753;BME280;2038;51.728;6.674;2023-04-22T06:26:30;100064.00;;;11.74;100.00
47753;BME280;2038;51.728;6.674;2023-04-22T06:28:56;100073.03;;;11.85;100.00
47753;BME280;2038;51.728;6.674;2023-04-22T06:31:22;100074.06;;;11.89;100.00
47753;BME280;2038;51.728;6.674;2023-04-22T06:33:48;100066.06;;;11.99;100.00
47753;BME280;2038;51.728;6.674;2023-04-22T06:36:15;100069.34;;;11.96;100.00
47753;BME280;2038;51.728;6.674;2023-04-22T06:38:41;100065.25;;;12.00;100.00
47753;BME280;2038;51.728;6.674;2023-04-22T06:41:07;100066.72;;;11.95;100.00
47753;BME280;2038;51.728;6.674;2023-04-22T06:43:33;100057.09;;;12.07;100.00
47753;BME280;2038;51.728;6.674;2023-04-22T06:46:00;100055.69;;;12.13;100.00
47753;BME280;2038;51.728;6.674;2023-04-22T06:48:26;100050.97;;;12.21;100.00
47753;BME280;2038;51.728;6.674;2023-04-22T06:50:53;100057.16;;;12.26;100.00
47753;BME280;2038;51.728;6.674;2023-04-22T06:53:19;100056.28;;;12.26;100.00
47753;BME280;2038;51.728;6.674;2023-04-22T06:55:47;100053.28;;;12.34;100.00
47753;BME280;2038;51.728;6.674;2023-04-22T06:58:15;100051.97;;;12.25;100.00
47753;BME280;2038;51.728;6.674;2023-04-22T07:00:41;100045.03;;;12.40;100.00
47753;BME280;2038;51.728;6.674;2023-04-22T07:03:07;100044.13;;;12.57;100.00
47753;BME280;2038;51.728;6.674;2023-04-22T07:05:38;100039.78;;;12.74;100.00
47753;BME280;2038;51.728;6.674;2023-04-22T07:08:05;100041.97;;;12.84;100.00
47753;BME280;2038;51.728;6.674;2023-04-22T07:10:31;100046.59;;;12.92;100.00
47753;BME280;2038;51.728;6.674;2023-04-22T07:12:57;100043.25;;;13.12;100.00
47753;BME280;2038;51.728;6.674;2023-04-22T07:15:23;100042.00;;;13.22;100.00
47753;BME280;2038;51.728;6.674;2023-04-22T07:17:49;100043.59;;;13.39;100.00
47753;BME280;2038;51.728;6.674;2023-04-22T07:20:15;100041.47;;;13.50;100.00
47753;BME280;2038;51.728;6.674;2023-04-22T07:22:41;100038.34;;;13.57;100.00
47753;BME280;2038;51.728;6.674;2023-04-22T07:25:07;100034.63;;;13.70;100.00
47753;BME280;2038;51.728;6.674;2023-04-22T07:27:35;100032.16;;;13.92;100.00
47753;BME280;2038;51.728;6.674;2023-04-22T07:30:02;100028.13;;;13.98;100.00
47753;BME280;2038;51.728;6.674;2023-04-22T07:32:28;100034.66;;;14.13;100.00
47753;BME280;2038;51.728;6.674;2023-04-22T07:34:55;100031.66;;;14.23;100.00
47753;BME280;2038;51.728;6.674;2023-04-22T07:37:21;100031.88;;;14.29;100.00
47753;BME280;2038;51.728;6.674;2023-04-22T07:39:48;100029.19;;;14.46;100.00
47753;BME280;2038;51.728;6.674;2023-04-22T07:42:14;100029.47;;;14.54;100.00
47753;BME280;2038;51.728;6.674;2023-04-22T07:44:40;100023.75;;;14.61;100.00
47753;BME280;2038;51.728;6.674;2023-04-22T07:47:07;100025.81;;;14.70;100.00
47753;BME280;2038;51.728;6.674;2023-04-22T07:49:33;100024.28;;;14.75;100.00
47753;BME280;2038;51.728;6.674;2023-04-22T07:51:59;100022.81;;;14.81;100.00
47753;BME280;2038;51.728;6.674;2023-04-22T07:54:25;100019.06;;;14.95;100.00
47753;BME280;2038;51.728;6.674;2023-04-22T07:56:52;100008.13;;;15.01;100.00
47753;BME280;2038;51.728;6.674;2023-04-22T07:59:18;100014.56;;;15.14;100.00
47753;BME280;2038;51.728;6.674;2023-04-22T08:01:44;100017.63;;;15.27;100.00
47753;BME280;2038;51.728;6.674;2023-04-22T08:04:13;100007.53;;;15.32;100.00
47753;BME280;2038;51.728;6.674;2023-04-22T08:06:39;100007.97;;;15.45;100.00
47753;BME280;2038;51.728;6.674;2023-04-22T08:09:06;99998.72;;;15.74;100.00
47753;BME280;2038;51.728;6.674;2023-04-22T08:11:32;100006.16;;;15.92;100.00
47753;BME280;2038;51.728;6.674;2023-04-22T08:13:58;100002.38;;;16.09;100.00
47753;BME280;2038;51.728;6.674;2023-04-22T08:16:24;99992.31;;;16.15;100.00
47753;BME280;2038;51.728;6.674;2023-04-22T08:18:51;99993.75;;;16.34;100.00
47753;BME280;2038;51.728;6.674;2023-04-22T08:21:17;100001.13;;;16.52;100.00
47753;BME280;2038;51.728;6.674;2023-04-22T08:23:43;100005.06;;;16.67;100.00
47753;BME280;2038;51.728;6.674;2023-04-22T08:26:10;100012.13;;;16.74;100.00
47753;BME280;2038;51.728;6.674;2023-04-22T08:28:39;100021.75;;;16.81;100.00
47753;BME280;2038;51.728;6.674;2023-04-22T08:31:07;100029.69;;;16.89;100.00
47753;BME280;2038;51.728;6.674;2023-04-22T08:33:35;100029.75;;;16.91;100.00
47753;BME280;2038;51.728;6.674;2023-04-22T08:36:01;100033.25;;;16.93;100.00
47753;BME280;2038;51.728;6.674;2023-04-22T08:38:28;100014.38;;;16.94;100.00
47753;BME280;2038;51.728;6.674;2023-04-22T08:40:56;100015.44;;;17.00;100.00
47753;BME280;2038;51.728;6.674;2023-04-22T08:43:25;100011.38;;;17.08;100.00
47753;BME280;2038;51.728;6.674;2023-04-22T08:45:52;100003.78;;;17.13;98.29
47753;BME280;2038;51.728;6.674;2023-04-22T08:48:19;100012.88;;;17.31;97.25
47753;BME280;2038;51.728;6.674;2023-04-22T08:50:46;99983.84;;;17.37;97.01
47753;BME280;2038;51.728;6.674;2023-04-22T08:53:13;99990.00;;;17.44;94.47
47753;BME280;2038;51.728;6.674;2023-04-22T08:55:43;99985.09;;;17.53;96.23
47753;BME280;2038;51.728;6.674;2023-04-22T08:58:10;99978.34;;;17.58;95.32
47753;BME280;2038;51.728;6.674;2023-04-22T09:00:38;99985.44;;;17.66;95.71
47753;BME280;2038;51.728;6.674;2023-04-22T09:03:08;99992.59;;;17.76;97.33
47753;BME280;2038;51.728;6.674;2023-04-22T09:05:36;99983.41;;;17.88;93.57
47753;BME280;2038;51.728;6.674;2023-04-22T09:08:06;99980.94;;;17.92;94.54
47753;BME280;2038;51.728;6.674;2023-04-22T09:10:35;99987.84;;;17.95;92.99
47753;BME280;2038;51.728;6.674;2023-04-22T09:13:04;99975.94;;;18.00;92.61
47753;BME280;2038;51.728;6.674;2023-04-22T09:15:32;99972.66;;;18.05;94.02
47753;BME280;2038;51.728;6.674;2023-04-22T09:17:58;99976.16;;;18.09;91.53
47753;BME280;2038;51.728;6.674;2023-04-22T09:20:28;99979.69;;;18.12;90.78
47753;BME280;2038;51.728;6.674;2023-04-22T09:22:56;99971.91;;;18.11;93.17
47753;BME280;2038;51.728;6.674;2023-04-22T09:25:28;99979.41;;;18.02;92.85
47753;BME280;2038;51.728;6.674;2023-04-22T09:27:58;99986.31;;;18.01;92.00
47753;BME280;2038;51.728;6.674;2023-04-22T09:30:28;99989.78;;;18.03;93.43
47753;BME280;2038;51.728;6.674;2023-04-22T09:33:00;99996.75;;;18.07;93.35
47753;BME280;2038;51.728;6.674;2023-04-22T09:35:30;99990.78;;;18.10;96.96
47753;BME280;2038;51.728;6.674;2023-04-22T09:38:02;99986.50;;;18.10;94.34
47753;BME280;2038;51.728;6.674;2023-04-22T09:40:31;99980.69;;;18.19;93.41
47753;BME280;2038;51.728;6.674;2023-04-22T09:43:03;99986.75;;;18.21;93.69
47753;BME280;2038;51.728;6.674;2023-04-22T09:45:33;99973.97;;;18.27;94.32
47753;BME280;2038;51.728;6.674;2023-04-22T09:48:16;99971.72;;;18.41;93.34
47753;BME280;2038;51.728;6.674;2023-04-22T09:50:46;99955.50;;;18.48;92.09
47753;BME280;2038;51.728;6.674;2023-04-22T09:53:18;99951.28;;;18.51;92.87
47753;BME280;2038;51.728;6.674;2023-04-22T09:55:52;99954.94;;;18.59;90.56
47753;BME280;2038;51.728;6.674;2023-04-22T09:58:20;99956.00;;;18.69;92.45
47753;BME280;2038;51.728;6.674;2023-04-22T10:00:52;99956.94;;;18.74;91.13
47753;BME280;2038;51.728;6.674;2023-04-22T10:03:20;99961.41;;;18.81;91.92
47753;BME280;2038;51.728;6.674;2023-04-22T10:05:46;99957.13;;;18.83;91.15
47753;BME280;2038;51.728;6.674;2023-04-22T10:08:14;99970.19;;;18.91;92.13
47753;BME280;2038;51.728;6.674;2023-04-22T10:10:42;99969.50;;;18.99;90.40
47753;BME280;2038;51.728;6.674;2023-04-22T10:13:08;99967.88;;;19.06;89.96
47753;BME280;2038;51.728;6.674;2023-04-22T10:15:40;99961.19;;;19.15;88.03
47753;BME280;2038;51.728;6.674;2023-04-22T10:18:14;99963.16;;;19.29;88.10
47753;BME280;2038;51.728;6.674;2023-04-22T10:20:45;99950.97;;;19.23;90.41
47753;BME280;2038;51.728;6.674;2023-04-22T10:23:14;99959.78;;;19.34;87.57
47753;BME280;2038;51.728;6.674;2023-04-22T10:25:47;99947.53;;;19.21;88.87
47753;BME280;2038;51.728;6.674;2023-04-22T10:28:16;99951.03;;;19.25;88.95
47753;BME280;2038;51.728;6.674;2023-04-22T10:30:42;99954.50;;;19.27;88.78
47753;BME280;2038;51.728;6.674;2023-04-22T10:38:41;99935.91;;;19.46;88.67
47753;BME280;2038;51.728;6.674;2023-04-22T10:41:33;99939.44;;;19.49;86.40
47753;BME280;2038;51.728;6.674;2023-04-22T10:44:09;99936.09;;;19.56;87.10
47753;BME280;2038;51.728;6.674;2023-04-22T10:49:08;99931.19;;;19.73;88.37
47753;BME280;2038;51.728;6.674;2023-04-22T10:57:04;99932.31;;;19.92;88.79
47753;BME280;2038;51.728;6.674;2023-04-22T10:59:47;99928.22;;;20.06;90.14
47753;BME280;2038;51.728;6.674;2023-04-22T11:02:19;99938.69;;;20.14;87.73
47753;BME280;2038;51.728;6.674;2023-04-22T11:04:47;99939.66;;;20.22;86.17
47753;BME280;2038;51.728;6.674;2023-04-22T11:09:59;99937.38;;;20.41;87.86
47753;BME280;2038;51.728;6.674;2023-04-22T11:15:07;99932.56;;;20.75;87.43
47753;BME280;2038;51.728;6.674;2023-04-22T11:17:36;99944.50;;;20.61;83.54
47753;BME280;2038;51.728;6.674;2023-04-22T11:20:04;99937.44;;;20.47;83.27
47753;BME280;2038;51.728;6.674;2023-04-22T11:22:36;99931.25;;;20.36;85.98
47753;BME280;2038;51.728;6.674;2023-04-22T11:25:04;99932.09;;;20.34;86.08
47753;BME280;2038;51.728;6.674;2023-04-22T11:27:31;99933.84;;;20.36;87.33
47753;BME280;2038;51.728;6.674;2023-04-22T11:30:12;99935.66;;;20.42;87.24
47753;BME280;2038;51.728;6.674;2023-04-22T11:32:46;99939.09;;;20.42;84.60
47753;BME280;2038;51.728;6.674;2023-04-22T11:35:34;99945.06;;;20.37;84.90
47753;BME280;2038;51.728;6.674;2023-04-22T11:38:02;99949.31;;;20.32;83.80
47753;BME280;2038;51.728;6.674;2023-04-22T11:40:32;99945.88;;;20.34;83.64
47753;BME280;2038;51.728;6.674;2023-04-22T11:43:02;99940.09;;;20.52;88.71
47753;BME280;2038;51.728;6.674;2023-04-22T11:45:31;99924.63;;;20.58;86.46
47753;BME280;2038;51.728;6.674;2023-04-22T11:47:59;99929.78;;;20.57;85.21
47753;BME280;2038;51.728;6.674;2023-04-22T11:50:28;99925.44;;;20.54;87.29
47753;BME280;2038;51.728;6.674;2023-04-22T11:53:02;99922.84;;;20.55;84.67
47753;BME280;2038;51.728;6.674;2023-04-22T11:55:38;99925.59;;;20.68;86.71
47753;BME280;2038;51.728;6.674;2023-04-22T12:05:45;99912.50;;;21.34;86.93
47753;BME280;2038;51.728;6.674;2023-04-22T12:08:18;99916.00;;;21.43;80.90
47753;BME280;2038;51.728;6.674;2023-04-22T12:14:03;99918.66;;;21.48;79.98
47753;BME280;2038;51.728;6.674;2023-04-22T12:16:12;99907.47;;;21.54;83.12
47753;BME280;2038;51.728;6.674;2023-04-22T12:18:50;99904.94;;;21.61;83.30
47753;BME280;2038;51.728;6.674;2023-04-22T12:21:24;99905.84;;;21.71;83.43
47753;BME280;2038;51.728;6.674;2023-04-22T12:23:59;99902.31;;;21.63;81.77
47753;BME280;2038;51.728;6.674;2023-04-22T12:26:30;99898.03;;;21.65;83.08
47753;BME280;2038;51.728;6.674;2023-04-22T12:28:58;99900.56;;;21.54;81.81
47753;BME280;2038;51.728;6.674;2023-04-22T12:31:26;99901.50;;;21.65;83.80
47753;BME280;2038;51.728;6.674;2023-04-22T12:33:53;99893.81;;;21.80;85.16
47753;BME280;2038;51.728;6.674;2023-04-22T12:36:20;99897.28;;;21.84;84.90
47753;BME280;2038;51.728;6.674;2023-04-22T12:38:47;99896.44;;;21.82;83.62
47753;BME280;2038;51.728;6.674;2023-04-22T12:41:13;99893.78;;;21.79;82.21
47753;BME280;2038;51.728;6.674;2023-04-22T12:43:41;99901.66;;;21.86;82.00
47753;BME280;2038;51.728;6.674;2023-04-22T12:46:08;99900.84;;;21.92;83.30
47753;BME280;2038;51.728;6.674;2023-04-22T12:48:35;99902.59;;;21.96;81.58
47753;BME280;2038;51.728;6.674;2023-04-22T12:51:02;99906.06;;;21.97;84.00
47753;BME280;2038;51.728;6.674;2023-04-22T12:53:29;99902.59;;;21.99;82.35
47753;BME280;2038;51.728;6.674;2023-04-22T12:55:55;99900.94;;;22.09;83.27
47753;BME280;2038;51.728;6.674;2023-04-22T12:58:23;99907.84;;;22.02;81.43
47753;BME280;2038;51.728;6.674;2023-04-22T13:00:49;99906.03;;;21.93;81.28
47753;BME280;2038;51.728;6.674;2023-04-22T13:03:15;99894.72;;;21.87;81.60
47753;BME280;2038;51.728;6.674;2023-04-22T13:05:42;99895.50;;;21.74;80.85
47753;BME280;2038;51.728;6.674;2023-04-22T13:08:09;99898.88;;;21.61;81.85
47753;BME280;2038;51.728;6.674;2023-04-22T13:10:35;99894.47;;;21.52;82.22
47753;BME280;2038;51.728;6.674;2023-04-22T13:13:02;99896.06;;;21.35;82.50
47753;BME280;2038;51.728;6.674;2023-04-22T13:15:33;99894.25;;;21.25;83.32
47753;BME280;2038;51.728;6.674;2023-04-22T13:17:59;99892.44;;;21.16;84.33
47753;BME280;2038;51.728;6.674;2023-04-22T13:20:26;99890.75;;;21.17;84.17
47753;BME280;2038;51.728;6.674;2023-04-22T13:22:52;99890.75;;;21.20;83.79
47753;BME280;2038;51.728;6.674;2023-04-22T13:25:18;99883.97;;;21.32;85.99
47753;BME280;2038;51.728;6.674;2023-04-22T13:27:45;99880.50;;;21.33;85.16
47753;BME280;2038;51.728;6.674;2023-04-22T13:30:11;99887.47;;;21.40;85.67